Greenwood, Wisconsin
Current Conditions -  °F | °C
As of 5:54 PM on Friday 19 Dec 2014 (Local Time) from KMFI Reporting Station
Overcast Overcast  
Wind Chill: 17°   Ceiling: 900
Heat Index: 24°   Visibility: 10mi
Dew Point: 19°   Wind: 6mph
Humidity: 81%   Direction: 190°S
Pressure: 30.25"   Gusts: NA
Location:  44.77°N, 90.6°W
Report Text: KMFI 192354Z AUTO 19005KT 10SM OVC009 M04/M07 A3025 RMK AO2 SLP266 T10441072 11044 21050 53007
Loading
Personal Weather Stations






























Interactive Weather Map New forecast layout! Learn more

10-Day Weather Forecast

Advertisements
Track Severe Weather on mobile